Time;durP1;ratioP1;P1;durP2;ratioP2;P2;SDS_P1;SDS_P2;PMS_P1;PMS_P2;Temp;Humidity;BMP_temperature;BMP_pressure;BME280_temperature;BME280_humidity;BME280_pressure;Samples;Min_cycle;Max_cycle;Signal;HPM_P1;HPM_P2
2021/05/17 00:02:04;;;;;;;4.32;3.70;;;17.20;71.80;;;;;;5024633;28;20029;-92
2021/05/17 00:04:34;;;;;;;4.75;3.42;;;17.10;72.60;;;;;;5027266;28;20025;-91
2021/05/17 00:07:05;;;;;;;5.82;3.58;;;17.00;73.50;;;;;;5026271;28;20048;-92
2021/05/17 00:09:31;;;;;;;4.85;3.60;;;16.90;73.50;;;;;;5020673;28;20036;-92
2021/05/17 00:11:57;;;;;;;5.07;4.32;;;16.90;74.00;;;;;;5019831;28;20037;-92
2021/05/17 00:14:25;;;;;;;4.75;3.55;;;16.80;75.30;;;;;;5020185;28;20037;-91
2021/05/17 00:16:51;;;;;;;3.35;3.05;;;16.70;74.70;;;;;;5019559;28;20025;-92
2021/05/17 00:19:17;;;;;;;3.35;2.40;;;16.70;75.10;;;;;;5019606;28;20040;-92
2021/05/17 00:21:43;;;;;;;2.80;2.25;;;16.60;74.70;;;;;;5019998;28;20037;-92
2021/05/17 00:24:11;;;;;;;2.30;2.05;;;16.70;74.90;;;;;;5019375;28;20029;-92
2021/05/17 00:26:37;;;;;;;3.13;2.70;;;16.70;75.20;;;;;;5019780;28;20107;-92
2021/05/17 00:29:03;;;;;;;8.57;3.70;;;16.70;75.20;;;;;;5019778;28;20029;-91
2021/05/17 00:31:29;;;;;;;5.97;3.35;;;16.70;76.20;;;;;;5020200;28;20041;-92
2021/05/17 00:33:55;;;;;;;4.65;3.47;;;16.60;76.90;;;;;;5021577;28;20022;-92
2021/05/17 00:36:22;;;;;;;5.32;3.97;;;16.60;77.30;;;;;;5038518;28;20177;-91
2021/05/17 00:38:48;;;;;;;3.95;3.55;;;16.50;78.50;;;;;;5040773;28;20025;-92
2021/05/17 00:41:14;;;;;;;5.22;3.55;;;16.50;78.40;;;;;;5021691;28;20487;-92
2021/05/17 00:43:39;;;;;;;5.95;4.00;;;16.40;79.00;;;;;;5018812;28;20030;-91
2021/05/17 00:46:07;;;;;;;5.00;3.10;;;16.40;79.40;;;;;;5036532;28;20022;-92
2021/05/17 00:48:37;;;;;;;4.40;3.38;;;16.40;79.60;;;;;;5018681;28;20037;-92
2021/05/17 00:51:04;;;;;;;3.97;3.10;;;16.40;79.70;;;;;;5036155;28;20041;-92
2021/05/17 00:53:31;;;;;;;3.40;2.90;;;16.30;79.80;;;;;;5018653;28;20116;-92
2021/05/17 00:55:57;;;;;;;3.35;2.40;;;16.30;79.80;;;;;;5018670;28;20116;-92
2021/05/17 00:58:23;;;;;;;3.22;2.75;;;16.30;80.00;;;;;;5018391;28;20112;-92
2021/05/17 01:00:49;;;;;;;3.10;2.33;;;16.40;80.30;;;;;;5017962;28;20061;-92
2021/05/17 01:03:15;;;;;;;2.40;2.20;;;16.40;80.20;;;;;;5018707;28;20029;-92
2021/05/17 01:05:41;;;;;;;3.95;2.60;;;16.40;80.40;;;;;;5018723;28;20060;-91
2021/05/17 01:08:12;;;;;;;2.97;2.50;;;16.30;81.00;;;;;;5036177;28;20029;-92
2021/05/17 01:10:43;;;;;;;2.78;2.58;;;16.30;81.40;;;;;;5018316;28;20084;-92
2021/05/17 01:13:10;;;;;;;5.13;3.92;;;16.30;81.90;;;;;;5018509;28;20072;-92
2021/05/17 01:15:37;;;;;;;5.60;4.10;;;16.20;83.20;;;;;;5017919;28;20030;-91
2021/05/17 01:18:04;;;;;;;4.78;3.80;;;16.10;84.30;;;;;;5018346;28;20473;-91
2021/05/17 01:20:32;;;;;;;4.55;3.28;;;15.90;86.10;;;;;;5018454;28;20033;-92
2021/05/17 01:25:54;;;;;;;2.92;2.63;;;15.50;86.40;;;;;;5035927;28;20519;-92
2021/05/17 01:28:25;;;;;;;3.03;2.55;;;15.50;86.40;;;;;;5036176;28;20028;-92
2021/05/17 01:30:53;;;;;;;3.67;2.95;;;15.40;86.70;;;;;;5018076;28;20132;-92
2021/05/17 01:33:20;;;;;;;4.28;3.40;;;15.40;86.90;;;;;;5035598;28;20025;-91
2021/05/17 01:35:50;;;;;;;3.90;3.25;;;15.40;87.50;;;;;;5035752;28;20105;-92
2021/05/17 01:38:17;;;;;;;4.30;3.08;;;15.40;88.00;;;;;;5035409;28;20077;-92
2021/05/17 01:40:45;;;;;;;2.92;2.53;;;15.40;88.30;;;;;;5035631;28;20029;-92
2021/05/17 01:43:13;;;;;;;3.95;2.85;;;15.40;88.00;;;;;;5018476;28;20057;-92
2021/05/17 01:45:39;;;;;;;2.28;2.10;;;15.30;88.10;;;;;;5035409;28;20076;-91
2021/05/17 01:48:06;;;;;;;2.45;2.25;;;15.40;88.60;;;;;;5018427;28;20029;-91
2021/05/17 01:50:32;;;;;;;5.00;3.10;;;15.40;88.80;;;;;;5017792;28;20087;-91
2021/05/17 01:52:58;;;;;;;6.40;4.57;;;15.50;88.90;;;;;;5035001;28;20034;-91
2021/05/17 01:55:24;;;;;;;8.23;5.72;;;15.40;90.40;;;;;;5017644;28;20029;-91
2021/05/17 01:58:10;;;;;;;6.78;6.07;;;15.30;91.30;;;;;;5017874;28;20022;-93
2021/05/17 02:00:40;;;;;;;5.35;4.85;;;15.00;93.10;;;;;;5017535;28;20112;-91
2021/05/17 02:03:09;;;;;;;6.07;4.40;;;14.80;93.40;;;;;;5035141;28;20105;-92
2021/05/17 02:05:35;;;;;;;7.43;5.07;;;14.70;93.50;;;;;;5018086;28;20465;-91
2021/05/17 02:08:03;;;;;;;4.47;4.07;;;14.60;94.10;;;;;;5018231;28;20117;-91
2021/05/17 02:10:30;;;;;;;4.25;3.78;;;14.50;94.40;;;;;;5017952;28;20099;-91
2021/05/17 02:12:57;;;;;;;4.68;3.75;;;14.50;94.00;;;;;;5018378;28;20484;-89
2021/05/17 02:15:25;;;;;;;4.10;3.55;;;14.50;94.10;;;;;;5039406;28;20041;-91
2021/05/17 02:18:06;;;;;;;4.63;4.05;;;14.50;94.00;;;;;;5037486;28;20087;-91
2021/05/17 02:20:36;;;;;;;4.25;3.85;;;14.50;94.40;;;;;;5018579;28;20048;-91
2021/05/17 02:23:04;;;;;;;5.00;4.00;;;14.50;94.10;;;;;;5035416;28;20025;-91
2021/05/17 02:25:30;;;;;;;6.00;4.28;;;14.40;94.30;;;;;;5017297;28;20040;-91
2021/05/17 02:27:57;;;;;;;6.35;3.80;;;14.40;94.40;;;;;;5017085;28;20049;-91
2021/05/17 02:30:24;;;;;;;4.00;3.60;;;14.40;94.40;;;;;;5017037;28;20124;-90
2021/05/17 02:32:50;;;;;;;3.72;3.40;;;14.40;94.50;;;;;;5035219;28;20481;-91
2021/05/17 02:35:17;;;;;;;4.05;3.63;;;14.40;94.50;;;;;;5017020;28;20064;-91
2021/05/17 02:37:43;;;;;;;6.15;4.05;;;14.40;94.60;;;;;;5017079;28;20120;-91
2021/05/17 02:40:09;;;;;;;4.78;4.20;;;14.40;94.60;;;;;;5034334;28;20480;-91
2021/05/17 02:42:35;;;;;;;7.32;5.15;;;14.40;94.80;;;;;;5034813;28;20091;-90
2021/05/17 02:45:06;;;;;;;5.38;4.60;;;14.40;95.10;;;;;;5017172;28;20369;-91
2021/05/17 02:47:37;;;;;;;6.72;5.35;;;14.40;95.10;;;;;;5017337;28;20021;-91
2021/05/17 02:50:05;;;;;;;4.60;4.10;;;14.40;95.10;;;;;;5034640;28;20029;-91
2021/05/17 02:52:32;;;;;;;4.97;3.95;;;14.40;95.20;;;;;;5016993;28;20030;-91
2021/05/17 02:55:08;;;;;;;6.80;4.43;;;14.40;95.10;;;;;;5034548;28;20025;-90
2021/05/17 02:57:49;;;;;;;5.10;4.35;;;14.40;95.10;;;;;;5017191;28;20380;-91
2021/05/17 03:00:19;;;;;;;5.28;4.40;;;14.40;94.90;;;;;;5016881;28;20029;-91
2021/05/17 03:03:17;;;;;;;4.55;4.15;;;14.40;95.00;;;;;;5034200;28;20473;-90
2021/05/17 03:05:44;;;;;;;6.70;4.07;;;14.50;95.20;;;;;;5003821;28;20039;-91
2021/05/17 03:08:13;;;;;;;5.10;4.60;;;14.50;95.10;;;;;;5034411;28;20029;-91
2021/05/17 03:10:42;;;;;;;6.60;4.72;;;14.60;95.20;;;;;;5034083;28;20033;-91
2021/05/17 03:13:09;;;;;;;6.50;4.47;;;14.60;95.30;;;;;;5016835;28;20499;-90
2021/05/17 03:15:36;;;;;;;6.13;4.70;;;14.60;95.30;;;;;;5016613;28;20134;-90
2021/05/17 03:18:02;;;;;;;5.68;5.18;;;14.70;95.30;;;;;;5034456;28;20029;-91
2021/05/17 03:20:28;;;;;;;6.32;5.38;;;14.70;95.50;;;;;;5016789;28;20029;-91
2021/05/17 03:22:56;;;;;;;5.40;4.90;;;14.80;95.40;;;;;;5017029;28;20465;-91
2021/05/17 03:25:30;;;;;;;5.10;4.20;;;14.80;95.30;;;;;;5020595;28;20026;-91
2021/05/17 03:27:55;;;;;;;4.93;4.43;;;14.80;95.30;;;;;;5037826;28;20069;-91
2021/05/17 03:30:22;;;;;;;7.03;4.63;;;14.90;95.00;;;;;;5020375;28;20512;-91
2021/05/17 03:32:48;;;;;;;4.65;4.10;;;14.90;95.10;;;;;;5020327;28;20079;-91
2021/05/17 03:35:14;;;;;;;5.88;4.22;;;14.90;95.00;;;;;;5020418;28;20029;-91
2021/05/17 03:37:40;;;;;;;4.07;3.67;;;15.00;95.10;;;;;;5020777;28;20025;-91
2021/05/17 03:40:07;;;;;;;8.77;4.45;;;15.00;95.00;;;;;;5037768;28;20048;-92
2021/05/17 03:42:33;;;;;;;4.70;4.20;;;15.00;95.00;;;;;;5040920;28;20025;-91
2021/05/17 03:44:59;;;;;;;5.43;4.53;;;15.00;95.00;;;;;;5038619;28;20132;-91
2021/05/17 03:47:25;;;;;;;5.25;3.78;;;15.00;95.00;;;;;;5021320;28;20128;-91
2021/05/17 03:49:50;;;;;;;4.53;3.38;;;15.00;94.90;;;;;;5023330;28;20025;-91
2021/05/17 03:52:16;;;;;;;6.22;4.40;;;15.10;95.00;;;;;;5042150;28;20030;-90
2021/05/17 03:54:42;;;;;;;7.68;4.40;;;15.10;95.00;;;;;;5031274;28;20124;-90
2021/05/17 03:57:07;;;;;;;5.15;3.67;;;15.10;94.90;;;;;;5042478;28;20026;-91
2021/05/17 03:59:34;;;;;;;3.70;2.97;;;15.10;94.80;;;;;;5039225;28;20030;-90
2021/05/17 04:02:00;;;;;;;3.95;3.00;;;15.10;94.80;;;;;;5020619;28;20025;-91
2021/05/17 04:04:27;;;;;;;3.53;3.10;;;15.10;94.70;;;;;;5020468;28;20522;-91
2021/05/17 04:07:00;;;;;;;4.05;3.55;;;15.10;94.70;;;;;;5019751;28;20025;-91
2021/05/17 04:14:54;;;;;;;4.60;3.58;;;15.10;94.80;;;;;;5038127;28;19912;-91
2021/05/17 04:17:20;;;;;;;3.55;3.10;;;15.20;94.80;;;;;;5037408;28;20034;-91
2021/05/17 04:19:45;;;;;;;5.80;3.42;;;15.20;94.70;;;;;;5037325;28;20025;-91
2021/05/17 04:22:11;;;;;;;4.93;3.58;;;15.20;94.70;;;;;;5019595;28;20029;-91
2021/05/17 04:24:37;;;;;;;4.30;3.22;;;15.20;94.60;;;;;;5019171;28;20025;-91
2021/05/17 04:27:03;;;;;;;4.18;3.55;;;15.20;94.50;;;;;;5019219;28;20457;-91
2021/05/17 04:29:29;;;;;;;4.50;3.60;;;15.30;94.50;;;;;;5019762;28;20083;-91
2021/05/17 04:31:54;;;;;;;4.60;4.10;;;15.30;94.40;;;;;;5018983;28;20034;-91
2021/05/17 04:34:20;;;;;;;8.20;3.80;;;15.40;94.30;;;;;;5019363;28;20025;-91
2021/05/17 04:36:46;;;;;;;5.43;4.03;;;15.50;94.20;;;;;;5022289;28;20021;-90
2021/05/17 04:39:12;;;;;;;5.20;3.88;;;15.50;94.10;;;;;;5029884;28;20025;-91
2021/05/17 04:41:37;;;;;;;4.00;3.60;;;15.60;93.80;;;;;;5020958;28;20029;-91
2021/05/17 04:44:03;;;;;;;3.75;2.95;;;15.70;93.80;;;;;;5019155;28;20033;-91
2021/05/17 04:46:29;;;;;;;4.47;3.30;;;15.90;93.60;;;;;;5018708;28;20033;-92
2021/05/17 04:48:55;;;;;;;3.70;3.38;;;16.00;93.40;;;;;;5019108;28;20029;-92
2021/05/17 04:51:24;;;;;;;3.53;3.20;;;16.10;93.30;;;;;;5019307;28;20499;-92
2021/05/17 04:53:51;;;;;;;4.57;3.55;;;16.20;93.00;;;;;;5036412;28;20103;-92
2021/05/17 04:56:17;;;;;;;4.78;3.85;;;16.20;92.90;;;;;;5019552;28;20052;-91
2021/05/17 04:58:43;;;;;;;4.93;4.05;;;16.20;92.60;;;;;;5018736;28;20025;-91
2021/05/17 05:01:09;;;;;;;5.55;4.60;;;16.30;92.70;;;;;;5018741;28;20033;-91
2021/05/17 05:03:34;;;;;;;4.70;3.83;;;16.30;92.60;;;;;;5018753;28;20495;-92
2021/05/17 05:06:00;;;;;;;4.90;4.25;;;16.40;92.80;;;;;;5018857;28;20026;-92
2021/05/17 05:08:26;;;;;;;4.00;3.40;;;16.40;92.80;;;;;;5018620;28;20481;-91
2021/05/17 05:10:53;;;;;;;3.83;3.50;;;16.50;92.90;;;;;;5018550;28;20373;-92
2021/05/17 05:13:19;;;;;;;4.00;3.60;;;16.60;92.90;;;;;;5018683;28;20103;-92
2021/05/17 05:15:45;;;;;;;6.70;3.63;;;16.60;92.70;;;;;;5020398;28;20029;-92
2021/05/17 05:18:11;;;;;;;4.05;3.25;;;16.70;92.50;;;;;;5018459;28;20037;-91
2021/05/17 05:20:37;;;;;;;4.88;3.80;;;16.80;92.40;;;;;;5018128;28;20033;-92
2021/05/17 05:23:04;;;;;;;3.92;3.45;;;16.90;92.30;;;;;;5035566;28;20381;-92
2021/05/17 05:25:50;;;;;;;3.38;3.08;;;16.80;92.20;;;;;;5035867;28;20060;-91
2021/05/17 05:28:19;;;;;;;3.95;3.17;;;16.90;92.40;;;;;;5036998;28;20045;-92
2021/05/17 05:33:17;;;;;;;6.03;4.53;;;17.10;92.40;;;;;;5035899;28;20469;-92
2021/05/17 05:35:48;;;;;;;3.83;3.42;;;17.20;92.00;;;;;;5018028;28;20418;-92
2021/05/17 05:38:14;;;;;;;5.78;3.55;;;17.30;92.00;;;;;;5019377;28;20032;-92
2021/05/17 05:40:40;;;;;;;3.22;2.55;;;17.30;91.90;;;;;;5018365;28;20029;-91
2021/05/17 05:43:06;;;;;;;3.80;3.50;;;17.40;91.80;;;;;;5035994;28;20040;-92
2021/05/17 05:45:33;;;;;;;3.90;3.47;;;17.50;91.50;;;;;;5018648;28;20357;-91
2021/05/17 05:48:00;;;;;;;4.18;3.20;;;17.50;91.50;;;;;;5021517;28;20030;-92
2021/05/17 05:50:26;;;;;;;4.80;3.30;;;17.60;91.50;;;;;;5006782;28;20032;-92
2021/05/17 05:52:52;;;;;;;4.57;3.60;;;17.70;91.40;;;;;;5004722;28;20065;-92
2021/05/17 05:55:18;;;;;;;3.03;2.80;;;17.80;91.40;;;;;;5026656;28;20026;-91
2021/05/17 05:57:44;;;;;;;3.90;3.60;;;17.90;91.30;;;;;;5010772;28;20366;-91
2021/05/17 06:00:16;;;;;;;3.63;3.33;;;17.90;91.10;;;;;;5031290;28;20064;-92
2021/05/17 06:02:42;;;;;;;4.43;3.15;;;18.00;90.80;;;;;;5015429;28;20022;-91
2021/05/17 06:05:09;;;;;;;4.22;3.83;;;18.00;91.00;;;;;;5015342;28;20054;-92
2021/05/17 06:07:35;;;;;;;5.28;4.00;;;18.00;90.10;;;;;;5001788;28;20030;-92
2021/05/17 06:10:01;;;;;;;4.32;3.90;;;17.90;90.00;;;;;;5018569;28;20030;-91
2021/05/17 06:12:27;;;;;;;4.63;3.78;;;17.90;88.90;;;;;;5001067;28;20172;-92
2021/05/17 06:15:00;;;;;;;6.30;4.32;;;17.80;89.30;;;;;;5021825;28;20033;-91
2021/05/17 06:17:26;;;;;;;4.82;4.20;;;17.70;89.20;;;;;;5002960;28;20030;-92
2021/05/17 06:19:53;;;;;;;4.15;3.75;;;17.70;89.50;;;;;;4999680;28;20030;-92
2021/05/17 06:22:21;;;;;;;4.32;3.92;;;17.70;89.70;;;;;;5000273;28;20472;-92
2021/05/17 06:24:48;;;;;;;5.47;3.78;;;17.70;89.70;;;;;;4999451;28;20470;-92
2021/05/17 06:27:14;;;;;;;5.38;3.85;;;17.70;90.10;;;;;;4999212;28;20143;-92
2021/05/17 06:29:42;;;;;;;8.57;3.80;;;17.80;90.10;;;;;;4999635;28;20121;-92
2021/05/17 06:32:10;;;;;;;6.25;4.40;;;17.90;90.10;;;;;;4999635;28;20061;-92
2021/05/17 06:34:39;;;;;;;6.28;4.35;;;18.10;90.00;;;;;;5016783;28;20029;-92
2021/05/17 06:37:04;;;;;;;5.88;4.30;;;18.20;88.70;;;;;;4998985;28;20504;-92
2021/05/17 06:39:30;;;;;;;4.30;3.90;;;18.30;89.00;;;;;;4999500;28;20112;-92
2021/05/17 06:41:57;;;;;;;5.40;3.42;;;18.50;88.80;;;;;;4998760;28;20488;-94
2021/05/17 06:44:23;;;;;;;3.95;3.45;;;18.60;88.20;;;;;;5003154;28;20057;-93
2021/05/17 06:46:49;;;;;;;5.03;3.28;;;18.80;87.70;;;;;;5002233;28;20021;-93
2021/05/17 06:49:15;;;;;;;3.80;3.42;;;19.10;87.70;;;;;;5024742;28;20030;-92
2021/05/17 06:51:40;;;;;;;3.30;3.00;;;19.30;87.60;;;;;;5000140;28;20462;-90
2021/05/17 06:54:09;;;;;;;3.38;3.08;;;19.50;86.50;;;;;;5005489;28;20385;-93
2021/05/17 06:59:11;;;;;;;4.60;4.10;;;19.70;83.80;;;;;;5018207;28;20038;-91
2021/05/17 07:01:37;;;;;;;5.63;4.25;;;19.70;83.90;;;;;;5018180;28;20030;-91
2021/05/17 07:04:04;;;;;;;4.80;3.78;;;19.70;81.70;;;;;;5017542;28;20037;-90
2021/05/17 07:06:33;;;;;;;6.53;4.00;;;19.60;82.80;;;;;;5017672;28;20056;-90
2021/05/17 07:11:52;;;;;;;4.10;3.60;;;19.60;83.90;;;;;;5019319;28;20464;-92
2021/05/17 07:14:18;;;;;;;4.07;3.47;;;19.60;83.90;;;;;;5001808;28;20022;-92
2021/05/17 07:16:48;;;;;;;4.20;3.80;;;19.50;84.00;;;;;;5001742;28;20026;-92
2021/05/17 07:19:14;;;;;;;4.15;3.75;;;19.60;84.30;;;;;;4984639;28;20030;-91
2021/05/17 07:24:27;;;;;;;4.97;4.47;;;19.50;84.10;;;;;;5017290;28;20044;-88
2021/05/17 07:26:53;;;;;;;5.07;3.95;;;19.30;84.00;;;;;;4999125;28;20046;-90
2021/05/17 07:29:20;;;;;;;6.70;4.90;;;19.20;84.90;;;;;;4992306;28;20035;-88
2021/05/17 07:31:47;;;;;;;8.20;4.75;;;19.00;84.90;;;;;;5003271;28;20117;-89
2021/05/17 07:34:15;;;;;;;5.03;4.53;;;18.80;85.30;;;;;;4997464;28;20026;-88
2021/05/17 07:36:42;;;;;;;5.22;4.00;;;18.60;85.80;;;;;;4999885;28;20488;-89
2021/05/17 07:39:08;;;;;;;4.70;4.30;;;18.40;86.40;;;;;;4990181;28;20032;-89
2021/05/17 07:41:34;;;;;;;5.78;4.38;;;18.30;87.00;;;;;;4999219;28;20416;-89
2021/05/17 07:44:03;;;;;;;4.43;4.03;;;18.20;87.50;;;;;;5002595;28;20022;-89
2021/05/17 07:46:29;;;;;;;4.32;3.42;;;18.10;88.00;;;;;;5011832;28;20049;-89
2021/05/17 07:49:10;;;;;;;5.05;4.22;;;18.10;88.50;;;;;;5016207;28;20030;-90
2021/05/17 07:51:38;;;;;;;4.65;3.40;;;18.00;88.60;;;;;;5002452;28;20044;-89
2021/05/17 07:54:04;;;;;;;6.43;4.35;;;18.00;89.00;;;;;;4997156;28;20029;-88
2021/05/17 07:56:32;;;;;;;5.32;3.78;;;18.00;89.00;;;;;;4998519;28;20034;-88
2021/05/17 07:58:58;;;;;;;6.70;4.00;;;17.90;88.90;;;;;;4984840;28;20376;-89
2021/05/17 08:01:24;;;;;;;4.68;3.33;;;17.80;89.20;;;;;;4999104;28;20422;-90
2021/05/17 08:03:50;;;;;;;4.55;3.10;;;17.80;89.60;;;;;;4969800;28;20043;-89
2021/05/17 08:06:17;;;;;;;4.00;3.60;;;17.80;89.70;;;;;;5023738;28;20057;-90
2021/05/17 08:08:43;;;;;;;4.63;3.92;;;17.80;89.90;;;;;;5014004;28;20103;-90
2021/05/17 08:11:09;;;;;;;6.93;5.15;;;17.70;90.00;;;;;;5009852;28;20093;-91
2021/05/17 08:13:35;;;;;;;7.38;5.90;;;17.50;90.20;;;;;;5009882;28;20049;-93
2021/05/17 08:16:01;;;;;;;6.63;5.28;;;17.30;90.60;;;;;;5010504;28;20129;-93
2021/05/17 08:18:26;;;;;;;6.65;5.82;;;16.90;91.40;;;;;;5002961;28;20030;-90
2021/05/17 08:20:52;;;;;;;6.85;5.60;;;16.50;92.20;;;;;;5001218;28;20026;-91
2021/05/17 08:23:18;;;;;;;7.15;5.85;;;16.30;93.10;;;;;;5011428;28;20137;-90
2021/05/17 08:25:46;;;;;;;7.63;5.20;;;16.10;93.80;;;;;;4999417;28;20038;-90
2021/05/17 08:28:14;;;;;;;9.27;5.57;;;15.90;94.60;;;;;;4999338;28;20050;-88
2021/05/17 08:30:46;;;;;;;6.30;5.20;;;15.80;94.90;;;;;;4998737;28;20058;-90
2021/05/17 08:33:13;;;;;;;6.15;5.45;;;15.70;95.10;;;;;;4999256;28;20030;-91
2021/05/17 08:35:41;;;;;;;6.70;5.63;;;15.70;95.30;;;;;;5013856;28;20029;-91
2021/05/17 08:38:07;;;;;;;6.32;5.20;;;15.70;95.50;;;;;;5005024;28;20461;-91
2021/05/17 08:40:39;;;;;;;7.35;4.88;;;15.70;95.40;;;;;;4998665;28;20026;-90
2021/05/17 08:43:05;;;;;;;4.10;3.67;;;15.70;95.40;;;;;;4999056;28;20034;-90
2021/05/17 08:45:32;;;;;;;6.40;4.47;;;15.70;95.40;;;;;;4998512;28;20026;-90
2021/05/17 08:47:58;;;;;;;4.53;4.10;;;15.80;95.70;;;;;;5017251;28;20065;-91
2021/05/17 08:50:25;;;;;;;5.15;4.65;;;15.90;95.80;;;;;;4998727;28;20468;-91
2021/05/17 08:52:52;;;;;;;4.50;3.90;;;16.00;95.60;;;;;;4998780;28;20026;-91
2021/05/17 08:55:18;;;;;;;4.22;3.83;;;16.10;95.60;;;;;;4998604;28;20076;-91
2021/05/17 08:57:48;;;;;;;4.75;4.25;;;16.20;95.90;;;;;;4997714;28;20119;-91
2021/05/17 09:00:18;;;;;;;6.05;5.32;;;16.40;95.80;;;;;;5008169;28;20033;-91
2021/05/17 09:02:44;;;;;;;4.80;4.30;;;16.50;95.60;;;;;;4999290;28;20069;-90
2021/05/17 09:05:15;;;;;;;4.80;4.38;;;16.60;95.70;;;;;;4999590;28;20030;-90
2021/05/17 09:07:46;;;;;;;6.43;4.93;;;16.80;95.80;;;;;;4998843;28;20116;-91
2021/05/17 09:10:25;;;;;;;5.47;4.97;;;17.00;96.30;;;;;;5015920;28;20029;-90
2021/05/17 09:12:59;;;;;;;5.40;4.88;;;17.20;96.30;;;;;;4998190;28;20037;-91
2021/05/17 09:15:36;;;;;;;5.53;5.03;;;17.50;96.20;;;;;;5018416;28;20022;-91
2021/05/17 09:18:13;;;;;;;6.10;5.50;;;17.80;95.70;;;;;;5001109;28;20037;-91
2021/05/17 09:20:40;;;;;;;6.20;5.60;;;17.90;95.20;;;;;;4997021;28;20626;-89
2021/05/17 09:23:17;;;;;;;6.43;5.22;;;18.10;95.00;;;;;;4996649;28;20472;-90
2021/05/17 09:26:03;;;;;;;5.20;4.63;;;18.20;94.90;;;;;;4996422;28;20044;-89
2021/05/17 09:28:37;;;;;;;4.75;4.25;;;18.40;94.50;;;;;;4994870;28;20527;-88
2021/05/17 09:31:08;;;;;;;4.80;4.30;;;18.60;95.00;;;;;;4996495;28;20041;-87
2021/05/17 09:33:52;;;;;;;4.10;3.70;;;18.80;95.30;;;;;;4996128;28;20041;-86
2021/05/17 09:36:33;;;;;;;4.30;3.47;;;19.10;94.80;;;;;;4997181;28;20354;-88
2021/05/17 09:39:07;;;;;;;3.78;3.47;;;19.30;94.10;;;;;;5013749;28;20354;-87
2021/05/17 09:41:43;;;;;;;4.40;3.97;;;19.50;94.00;;;;;;5013909;28;20124;-89
2021/05/17 09:44:15;;;;;;;4.22;3.83;;;19.80;93.60;;;;;;4999507;28;20069;-89
2021/05/17 09:47:06;;;;;;;5.38;4.00;;;19.90;93.10;;;;;;4995463;28;20026;-88
2021/05/17 09:49:34;;;;;;;5.57;4.53;;;20.00;92.30;;;;;;4995421;28;20440;-87
2021/05/17 09:52:07;;;;;;;5.78;4.13;;;20.10;92.80;;;;;;5012572;28;20062;-88
2021/05/17 09:55:09;;;;;;;4.30;3.90;;;20.20;92.60;;;;;;4994494;28;20385;-86
2021/05/17 09:57:47;;;;;;;3.90;3.17;;;20.40;92.00;;;;;;4954043;28;20117;-88
2021/05/17 10:00:30;;;;;;;5.10;4.60;;;20.50;92.70;;;;;;4996298;28;20129;-87
2021/05/17 10:03:02;;;;;;;6.85;5.50;;;20.70;91.30;;;;;;4996123;28;20109;-88
2021/05/17 10:05:35;;;;;;;6.25;5.65;;;20.80;90.80;;;;;;4996442;28;20489;-89
2021/05/17 10:08:04;;;;;;;6.35;5.43;;;20.80;89.90;;;;;;5016750;28;20021;-88
2021/05/17 10:10:31;;;;;;;5.93;5.13;;;20.70;87.60;;;;;;5001926;28;20046;-88
2021/05/17 10:12:59;;;;;;;8.30;6.18;;;20.60;87.20;;;;;;5002369;28;20022;-87
2021/05/17 10:15:28;;;;;;;7.63;5.60;;;20.50;86.30;;;;;;5006781;28;20037;-89
2021/05/17 10:17:55;;;;;;;7.85;5.45;;;20.30;85.50;;;;;;5012157;28;20115;-89
2021/05/17 10:20:23;;;;;;;7.10;5.80;;;20.20;87.60;;;;;;5002445;28;20040;-86
2021/05/17 10:22:51;;;;;;;6.70;4.97;;;20.20;87.10;;;;;;4998376;28;20025;-86
2021/05/17 10:25:25;;;;;;;5.88;5.25;;;20.20;87.80;;;;;;5014406;28;20030;-89
2021/05/17 10:27:55;;;;;;;5.85;5.35;;;20.30;87.90;;;;;;5014244;28;20042;-89
2021/05/17 10:30:34;;;;;;;6.50;5.50;;;20.40;88.00;;;;;;5015201;28;20107;-89
2021/05/17 10:33:05;;;;;;;5.85;5.25;;;20.50;86.30;;;;;;4997516;28;20056;-90
2021/05/17 10:35:39;;;;;;;7.40;5.88;;;20.60;87.00;;;;;;5008241;28;20475;-90
2021/05/17 10:38:44;;;;;;;6.82;6.22;;;20.80;87.40;;;;;;5004741;28;20056;-90
2021/05/17 10:46:55;;;;;;;5.25;4.75;;;21.30;82.70;;;;;;5025931;28;20109;-89
2021/05/17 10:49:31;;;;;;;6.20;5.70;;;21.40;83.30;;;;;;5015977;28;20477;-89
2021/05/17 10:52:06;;;;;;;5.45;4.90;;;21.60;80.90;;;;;;5026261;28;20114;-89
2021/05/17 10:54:38;;;;;;;;;;;21.70;83.30;;;;;;5016749;28;20116;-89
2021/05/17 10:57:34;;;;;;;4.70;4.30;;;21.80;77.70;;;;;;4996026;28;19913;-89
2021/05/17 11:02:46;;;;;;;4.60;4.15;;;22.40;84.60;;;;;;5015693;28;20032;-90
2021/05/17 11:05:19;;;;;;;4.10;3.75;;;22.70;82.60;;;;;;4996953;28;20461;-90
2021/05/17 11:07:46;;;;;;;5.50;3.88;;;23.00;82.90;;;;;;4997862;28;20021;-90
2021/05/17 11:10:34;;;;;;;3.80;3.50;;;23.30;82.40;;;;;;4997669;28;20054;-88
2021/05/17 11:13:05;;;;;;;6.03;3.80;;;23.50;78.10;;;;;;4997628;28;20052;-89
2021/05/17 11:15:44;;;;;;;3.63;3.33;;;23.60;79.60;;;;;;4997397;28;20692;-89
2021/05/17 11:18:22;;;;;;;4.15;3.75;;;23.70;79.20;;;;;;5014313;28;20038;-89
2021/05/17 11:20:53;;;;;;;4.65;4.00;;;23.80;79.30;;;;;;4997322;28;20484;-89
2021/05/17 11:23:19;;;;;;;4.82;4.43;;;23.90;79.00;;;;;;4996743;28;20109;-90
2021/05/17 11:25:47;;;;;;;4.20;3.80;;;24.00;78.20;;;;;;4997687;28;20053;-89
2021/05/17 11:28:14;;;;;;;4.55;3.90;;;24.00;78.10;;;;;;5001082;28;20042;-90
2021/05/17 11:30:42;;;;;;;6.78;5.40;;;23.90;77.30;;;;;;5002361;28;20129;-89
2021/05/17 11:33:26;;;;;;;5.10;4.68;;;23.90;76.30;;;;;;5001766;28;20026;-89
2021/05/17 11:36:23;;;;;;;6.00;5.43;;;23.70;73.40;;;;;;4990417;28;20033;-89
2021/05/17 11:39:09;;;;;;;7.68;6.80;;;23.60;73.00;;;;;;4989126;28;20057;-89
2021/05/17 11:41:59;;;;;;;6.30;5.70;;;23.30;73.20;;;;;;4992895;28;20038;-89
2021/05/17 11:44:29;;;;;;;6.53;5.70;;;22.90;73.50;;;;;;4971857;28;20042;-88
2021/05/17 11:46:57;;;;;;;5.80;5.30;;;22.70;76.10;;;;;;4989990;28;20033;-88
2021/05/17 11:49:26;;;;;;;5.75;5.25;;;22.50;76.00;;;;;;4996854;28;20403;-86
2021/05/17 11:53:06;;;;;;;;;;;;;;;;;;;;;
2021/05/17 12:06:07;;;;;;;6.55;5.95;;;22.20;77.50;;;;;;4851685;29;20130;-91
2021/05/17 12:08:34;;;;;;;6.20;5.70;;;22.40;78.10;;;;;;4893497;29;20481;-90
2021/05/17 12:11:00;;;;;;;6.20;5.60;;;22.30;77.50;;;;;;4975318;28;20056;-90
2021/05/17 12:13:25;;;;;;;6.30;5.70;;;22.20;77.50;;;;;;5026064;28;20026;-90
2021/05/17 12:15:52;;;;;;;6.43;5.30;;;22.20;77.60;;;;;;5036966;28;20461;-89
2021/05/17 12:18:19;;;;;;;5.10;4.60;;;22.20;77.50;;;;;;5035185;28;20021;-89
2021/05/17 12:20:46;;;;;;;5.80;5.28;;;22.20;78.10;;;;;;5026365;28;20121;-91
2021/05/17 12:23:13;;;;;;;6.05;5.32;;;22.20;78.00;;;;;;5020503;28;20022;-91
2021/05/17 12:25:40;;;;;;;10.20;6.80;;;22.30;77.90;;;;;;5019509;28;20034;-91
2021/05/17 12:28:08;;;;;;;8.70;6.50;;;22.20;76.70;;;;;;5016710;28;20046;-91
2021/05/17 12:30:58;;;;;;;6.90;5.32;;;22.10;76.90;;;;;;5019341;28;20049;-90
2021/05/17 12:33:25;;;;;;;5.40;4.88;;;21.90;77.10;;;;;;5019560;28;20072;-91
2021/05/17 12:39:23;;;;;;;6.00;5.40;;;21.80;77.90;;;;;;4997510;28;20072;-91
2021/05/17 12:42:27;;;;;;;5.63;5.13;;;21.90;78.80;;;;;;4997759;28;20030;-92
2021/05/17 12:48:43;;;;;;;6.38;5.75;;;22.10;78.10;;;;;;4937209;29;20034;-92
2021/05/17 12:51:28;;;;;;;4.95;4.55;;;22.20;78.20;;;;;;4937493;29;20051;-91
2021/05/17 12:57:21;;;;;;;6.15;5.65;;;22.80;78.30;;;;;;4957406;29;20045;-91
2021/05/17 12:59:47;;;;;;;6.40;5.10;;;23.70;81.10;;;;;;4941505;29;20149;-92
2021/05/17 13:02:36;;;;;;;4.78;4.32;;;24.60;79.90;;;;;;4955329;29;20039;-90
2021/05/17 13:05:03;;;;;;;4.50;4.18;;;25.40;77.00;;;;;;4939067;29;20418;-91
2021/05/17 13:08:02;;;;;;;4.60;4.20;;;25.60;74.30;;;;;;4956005;29;20508;-90
2021/05/17 13:10:28;;;;;;;5.40;4.20;;;25.70;71.30;;;;;;4940197;29;20035;-90
2021/05/17 13:12:56;;;;;;;5.32;4.72;;;25.50;70.50;;;;;;4939859;29;20039;-90
2021/05/17 13:15:28;;;;;;;6.13;5.50;;;25.40;70.20;;;;;;4940368;29;20054;-89
2021/05/17 13:18:01;;;;;;;4.22;3.83;;;25.30;70.60;;;;;;4949420;28;20093;-90
2021/05/17 13:20:29;;;;;;;;;;;25.20;69.40;;;;;;4979860;28;20466;-92
2021/05/17 13:31:49;;;;;;;3.65;3.35;;;24.80;71.70;;;;;;4996892;28;20125;-92
2021/05/17 13:34:18;;;;;;;5.07;4.57;;;24.80;71.20;;;;;;4987939;28;20042;-91
2021/05/17 13:36:44;;;;;;;6.63;4.65;;;25.00;72.00;;;;;;4996705;28;20061;-91
2021/05/17 13:39:10;;;;;;;4.55;4.15;;;25.30;71.10;;;;;;4996239;28;20393;-92
2021/05/17 13:41:35;;;;;;;4.22;3.83;;;25.20;69.60;;;;;;4995202;28;20393;-91
2021/05/17 13:44:02;;;;;;;3.97;3.58;;;25.10;68.90;;;;;;4996096;28;20042;-90
2021/05/17 13:46:30;;;;;;;10.63;5.10;;;24.90;68.80;;;;;;4995296;28;20026;-89
2021/05/17 13:48:59;;;;;;;4.93;4.43;;;24.60;68.60;;;;;;4996245;28;20045;-89
2021/05/17 13:51:35;;;;;;;6.90;4.55;;;24.20;68.30;;;;;;5002098;28;20038;-90
2021/05/17 13:54:09;;;;;;;4.22;3.83;;;24.00;70.30;;;;;;5013614;28;20034;-90
2021/05/17 13:56:35;;;;;;;5.13;3.70;;;24.20;71.20;;;;;;5005922;28;20034;-90
2021/05/17 13:59:01;;;;;;;7.03;3.70;;;24.50;71.30;;;;;;5000542;28;20077;-91